Eliasville, TX (76481)

10:03 AM CDT on October 22, 2014 (GMT -0500)
SOUTH BEND STATION 1 | Change Station
CLOSE
Current Station
Personal Weather Station
Location: SOUTH BEND, TX
Elevation: 1056 ft
Nearby Weather Stations

Elev 1056 ft 33.01 °N, 98.66 °W | Updated 35 seconds ago

Mostly Cloudy
Mostly Cloudy
64.3 °F
Feels Like 64.3 °F
N
0.0
Wind Variable Wind from East
Gusts 0.0 mph

Today
High -- | Low -- °F
--% Chance of Precip.
Yesterday
High -- | Low -- °F
Precip. -- in
7:44 AM 6:53 PM
Waning Crescent, 2% visible
Pressure 30.13 in
Visibility 10.0 miles
Clouds Clear
Dew Point 59 °F
Humidity 84%
Rainfall 0.00 in
Snow Depth Not available.
UV 1 out of 12
Pollen 5.50 out of 12
Air Quality Not available.
Flu Activity Sporadic
METAR KRPH 221410Z AUTO 00000KT 10SM CLR 17/15 A3013 RMK AO2 T01720147

More Conditions Fewer Conditions

Pressure 30.13 in
Visibility 10.0 miles
Clouds Clear
Dew Point 59 °F
Humidity 84%
Rainfall 0.00 in
Snow Depth Not available.
UV 1 out of 12
Pollen 5.50 out of 12
Air Quality Not available.
Flu Activity Sporadic
METAR KRPH 221410Z AUTO 00000KT 10SM CLR 17/15 A3013 RMK AO2 T01720147

More Conditions Fewer Conditions

10-Day Weather Forecast

Almanac

Astronomy

Oct. 22, 2014 Rise Set
Actual Time 7:44 AM CDT 6:53 PM CDT
Civil Twilight 7:19 AM CDT 7:18 PM CDT
Nautical Twilight 6:50 AM CDT 7:47 PM CDT
Astronomical Twilight 6:21 AM CDT 8:15 PM CDT
Moon 6:31 AM CDT 6:18 PM CDT
Length of Visible Light 11h 59m
Length of Day
11h 08m
Tomorrow will be 1m 53s shorter.
Waning Crescent, 2% of the Moon is Illuminated
Today
Waning Crescent
Oct 23
New
Oct 30
First Quarter
Nov 6
Full
Nov 14
Last Quarter

Today's Extremes

State Highs State Lows

Community

WunderPhotos

Upload Photos

1,763,940 photos uploaded!

WunderBlogs® & News

Nearby

Snow Depth

Station Depth Elevation
No new snow has been reported.

Earthquake Activity

City Distance Mag. Time & Date
No recent earthquake activity has been reported nearby.
Minimum magnitude displayed is 2.5.

Coastal Water Temperatures

Place Temperature
No Stations Reporting

Nearby Weather Stations